Time;durP1;ratioP1;P1;durP2;ratioP2;P2;SDS_P1;SDS_P2;PMS_P1;PMS_P2;Temp;Humidity;BMP_temperature;BMP_pressure;BME280_temperature;BME280_humidity;BME280_pressure;Samples;Min_cycle;Max_cycle;Signal;HPM_P1;HPM_P2
2023/06/19 00:02:16;;;;;;;;;;;;;;;;;;4994883;28;8584;-85
2023/06/19 00:04:42;;;;;;;;;;;;;;;;;;4994423;28;8559;-85
2023/06/19 00:07:08;;;;;;;;;;;;;;;;;;4994423;28;8532;-84
2023/06/19 00:09:33;;;;;;;;;;;;;;;;;;4994542;28;8404;-85
2023/06/19 00:11:59;;;;;;;;;;;;;;;;;;4994167;28;8402;-85
2023/06/19 00:14:25;;;;;;;;;;;;;;;;;;4994474;28;8885;-84
2023/06/19 00:16:51;;;;;;;;;;;;;;;;;;4994246;28;8544;-84
2023/06/19 00:19:17;;;;;;;;;;;;;;;;;;4994042;28;8568;-84
2023/06/19 00:21:43;;;;;;;;;;;;;;;;;;4994194;28;8917;-85
2023/06/19 00:24:09;;;;;;;;;;;;;;;;;;4994042;28;8830;-84
2023/06/19 00:26:36;;;;;;;;;;;;;;;;;;4994138;28;8673;-84
2023/06/19 00:29:02;;;;;;;;;;;;;;;;;;4993893;28;7178;-84
2023/06/19 00:31:27;;;;;;;;;;;;;;;;;;4994237;28;8567;-85
2023/06/19 00:33:53;;;;;;;;;;;;;;;;;;4993779;28;8746;-83
2023/06/19 00:36:24;;;;;;;;;;;;;;;;;;4994143;28;8539;-84
2023/06/19 00:38:50;;;;;;;;;;;;;;;;;;4993943;28;8896;-85
2023/06/19 00:41:16;;;;;;;;;;;;;;;;;;4993834;28;8855;-85
2023/06/19 00:43:42;;;;;;;;;;;;;;;;;;4993753;28;8558;-84
2023/06/19 00:46:07;;;;;;;;;;;;;;;;;;4993587;28;8700;-85
2023/06/19 00:48:34;;;;;;;;;;;;;;;;;;4993796;28;8600;-84
2023/06/19 00:51:00;;;;;;;;;;;;;;;;;;4993380;28;8556;-84
2023/06/19 00:53:26;;;;;;;;;;;;;;;;;;4993671;28;8537;-84
2023/06/19 00:55:53;;;;;;;;;;;;;;;;;;4991078;28;8761;-84
2023/06/19 00:58:20;;;;;;;;;;;;;;;;;;4973977;28;7151;-84
2023/06/19 01:00:46;;;;;;;;;;;;;;;;;;4973975;28;8605;-84
2023/06/19 01:03:11;;;;;;;;;;;;;;;;;;4973654;28;8770;-84
2023/06/19 01:05:37;;;;;;;;;;;;;;;;;;4973990;28;8549;-85
2023/06/19 01:08:12;;;;;;;;;;;;;;;;;;4973845;28;8554;-85
2023/06/19 01:10:49;;;;;;;;;;;;;;;;;;4973803;28;8628;-85
2023/06/19 01:13:30;;;;;;;;;;;;;;;;;;4973738;28;9356;-85
2023/06/19 01:15:57;;;;;;;;;;;;;;;;;;4989909;28;8856;-84
2023/06/19 01:18:25;;;;;;;;;;;;;;;;;;4973668;28;8535;-84
2023/06/19 01:20:51;;;;;;;;;;;;;;;;;;4973698;28;8605;-84
2023/06/19 01:23:16;;;;;;;;;;;;;;;;;;4973697;28;8706;-84
2023/06/19 01:25:42;;;;;;;;;;;;;;;;;;4973750;28;8856;-84
2023/06/19 01:28:11;;;;;;;;;;;;;;;;;;4973434;28;8856;-85
2023/06/19 01:30:38;;;;;;;;;;;;;;;;;;4973533;28;8868;-84
2023/06/19 01:33:30;;;;;;;;;;;;;;;;;;4973439;28;8610;-84
2023/06/19 01:35:57;;;;;;;;;;;;;;;;;;4972261;28;8911;-84
2023/06/19 01:38:26;;;;;;;;;;;;;;;;;;4973140;28;8642;-84
2023/06/19 01:40:56;;;;;;;;;;;;;;;;;;4973535;28;9776;-84
2023/06/19 01:43:23;;;;;;;;;;;;;;;;;;4973400;28;7450;-84
2023/06/19 01:45:49;;;;;;;;;;;;;;;;;;4972867;28;7157;-84
2023/06/19 01:48:15;;;;;;;;;;;;;;;;;;4973527;28;8525;-84
2023/06/19 01:50:48;;;;;;;;;;;;;;;;;;4973169;28;8540;-84
2023/06/19 01:53:14;;;;;;;;;;;;;;;;;;4973296;28;8869;-83
2023/06/19 01:55:40;;;;;;;;;;;;;;;;;;4973034;28;8652;-83
2023/06/19 01:58:07;;;;;;;;;;;;;;;;;;4972867;28;7965;-83
2023/06/19 02:00:35;;;;;;;;;;;;;;;;;;4973053;28;8560;-84
2023/06/19 02:03:01;;;;;;;;;;;;;;;;;;4972972;28;8562;-83
2023/06/19 02:05:27;;;;;;;;;;;;;;;;;;4973044;28;8897;-84
2023/06/19 02:07:52;;;;;;;;;;;;;;;;;;4973066;28;8557;-83
2023/06/19 02:10:18;;;;;;;;;;;;;;;;;;4973308;28;8560;-84
2023/06/19 02:12:44;;;;;;;;;;;;;;;;;;4973135;28;8654;-84
2023/06/19 02:15:09;;;;;;;;;;;;;;;;;;4972990;28;8556;-84
2023/06/19 02:17:35;;;;;;;;;;;;;;;;;;4972960;28;8546;-84
2023/06/19 02:20:01;;;;;;;;;;;;;;;;;;4972928;28;7534;-84
2023/06/19 02:22:26;;;;;;;;;;;;;;;;;;4973058;28;7142;-84
2023/06/19 02:24:52;;;;;;;;;;;;;;;;;;4973006;28;7161;-84
2023/06/19 02:27:18;;;;;;;;;;;;;;;;;;4972538;28;7239;-85
2023/06/19 02:29:44;;;;;;;;;;;;;;;;;;4972850;28;8503;-85
2023/06/19 02:32:10;;;;;;;;;;;;;;;;;;4972946;28;8548;-84
2023/06/19 02:34:36;;;;;;;;;;;;;;;;;;4972591;28;8541;-84
2023/06/19 02:37:02;;;;;;;;;;;;;;;;;;4972859;28;8552;-84
2023/06/19 02:39:29;;;;;;;;;;;;;;;;;;4972735;28;7537;-85
2023/06/19 02:41:54;;;;;;;;;;;;;;;;;;4972812;28;8606;-85
2023/06/19 02:44:20;;;;;;;;;;;;;;;;;;4972824;28;8517;-85
2023/06/19 02:46:46;;;;;;;;;;;;;;;;;;4972747;28;8818;-84
2023/06/19 02:49:11;;;;;;;;;;;;;;;;;;4972618;28;8595;-85
2023/06/19 02:51:37;;;;;;;;;;;;;;;;;;4972903;28;8579;-83
2023/06/19 02:54:03;;;;;;;;;;;;;;;;;;4972702;28;8620;-84
2023/06/19 02:56:29;;;;;;;;;;;;;;;;;;4973271;28;8530;-85
2023/06/19 02:58:55;;;;;;;;;;;;;;;;;;4976239;28;8610;-85
2023/06/19 03:01:20;;;;;;;;;;;;;;;;;;4976255;28;8556;-85
2023/06/19 03:03:47;;;;;;;;;;;;;;;;;;4976119;28;8888;-85
2023/06/19 03:06:13;;;;;;;;;;;;;;;;;;4976117;28;8796;-85
2023/06/19 03:08:39;;;;;;;;;;;;;;;;;;4976264;28;7191;-85
2023/06/19 03:11:05;;;;;;;;;;;;;;;;;;4976197;28;8616;-85
2023/06/19 03:13:47;;;;;;;;;;;;;;;;;;4975815;28;7188;-84
2023/06/19 03:16:12;;;;;;;;;;;;;;;;;;4975761;28;8637;-84
2023/06/19 03:18:38;;;;;;;;;;;;;;;;;;4975917;28;8588;-85
2023/06/19 03:21:04;;;;;;;;;;;;;;;;;;4976060;28;8447;-85
2023/06/19 03:23:29;;;;;;;;;;;;;;;;;;4976121;28;8574;-85
2023/06/19 03:25:57;;;;;;;;;;;;;;;;;;4975916;28;7144;-85
2023/06/19 03:28:22;;;;;;;;;;;;;;;;;;4975282;28;8432;-85
2023/06/19 03:30:48;;;;;;;;;;;;;;;;;;4975706;28;8921;-85
2023/06/19 03:33:14;;;;;;;;;;;;;;;;;;4975646;28;7159;-85
2023/06/19 03:35:40;;;;;;;;;;;;;;;;;;4975406;28;8576;-84
2023/06/19 03:38:06;;;;;;;;;;;;;;;;;;4975682;28;9074;-84
2023/06/19 03:40:32;;;;;;;;;;;;;;;;;;4975680;28;8928;-84
2023/06/19 03:42:58;;;;;;;;;;;;;;;;;;4975637;28;8529;-84
2023/06/19 03:45:23;;;;;;;;;;;;;;;;;;4975196;28;9678;-84
2023/06/19 03:47:49;;;;;;;;;;;;;;;;;;4975166;28;8567;-84
2023/06/19 03:50:15;;;;;;;;;;;;;;;;;;4975316;28;8412;-84
2023/06/19 03:52:40;;;;;;;;;;;;;;;;;;4981738;28;6954;-84
2023/06/19 03:55:06;;;;;;;;;;;;;;;;;;4994156;28;8508;-84
2023/06/19 03:57:32;;;;;;;;;;;;;;;;;;4994192;28;8930;-84
2023/06/19 03:59:58;;;;;;;;;;;;;;;;;;4994089;28;8842;-85
2023/06/19 04:02:23;;;;;;;;;;;;;;;;;;4993830;28;8762;-85
2023/06/19 04:04:49;;;;;;;;;;;;;;;;;;4994691;28;8530;-84
2023/06/19 04:07:15;;;;;;;;;;;;;;;;;;4993874;28;8502;-85
2023/06/19 04:09:41;;;;;;;;;;;;;;;;;;4994725;28;8550;-85
2023/06/19 04:12:06;;;;;;;;;;;;;;;;;;4994430;28;8559;-85
2023/06/19 04:14:32;;;;;;;;;;;;;;;;;;4994468;28;9801;-86
2023/06/19 04:16:58;;;;;;;;;;;;;;;;;;4994389;28;8427;-85
2023/06/19 04:19:23;;;;;;;;;;;;;;;;;;4994133;28;9465;-86
2023/06/19 04:21:49;;;;;;;;;;;;;;;;;;4994214;28;8610;-86
2023/06/19 04:24:15;;;;;;;;;;;;;;;;;;4994072;28;8548;-86
2023/06/19 04:26:42;;;;;;;;;;;;;;;;;;4994605;28;8647;-86
2023/06/19 04:29:07;;;;;;;;;;;;;;;;;;4994012;28;8511;-85
2023/06/19 04:31:40;;;;;;;;;;;;;;;;;;4994111;28;8569;-86
2023/06/19 04:34:06;;;;;;;;;;;;;;;;;;4994040;28;8620;-85
2023/06/19 04:36:32;;;;;;;;;;;;;;;;;;4993978;28;8748;-85
2023/06/19 04:39:00;;;;;;;;;;;;;;;;;;4994122;28;8672;-85
2023/06/19 04:41:26;;;;;;;;;;;;;;;;;;4993850;28;8561;-86
2023/06/19 04:43:51;;;;;;;;;;;;;;;;;;4994033;28;8540;-87
2023/06/19 04:46:20;;;;;;;;;;;;;;;;;;4993780;28;8503;-86
2023/06/19 04:48:50;;;;;;;;;;;;;;;;;;4993851;28;8580;-86
2023/06/19 04:51:20;;;;;;;;;;;;;;;;;;4994018;28;8587;-86
2023/06/19 04:53:47;;;;;;;;;;;;;;;;;;4994055;28;8724;-86
2023/06/19 04:56:13;;;;;;;;;;;;;;;;;;4993643;28;8558;-85
2023/06/19 04:58:46;;;;;;;;;;;;;;;;;;4993531;28;8489;-86
2023/06/19 05:01:15;;;;;;;;;;;;;;;;;;4993434;28;8553;-86
2023/06/19 05:03:41;;;;;;;;;;;;;;;;;;4993253;28;8637;-85
2023/06/19 05:06:07;;;;;;;;;;;;;;;;;;4993399;28;8563;-86
2023/06/19 05:08:33;;;;;;;;;;;;;;;;;;4993389;28;8539;-86
2023/06/19 05:10:58;;;;;;;;;;;;;;;;;;4993795;28;8792;-86
2023/06/19 05:13:24;;;;;;;;;;;;;;;;;;4993141;28;8530;-86
2023/06/19 05:15:50;;;;;;;;;;;;;;;;;;4993445;28;8870;-87
2023/06/19 05:18:16;;;;;;;;;;;;;;;;;;4992918;28;8613;-86
2023/06/19 05:20:42;;;;;;;;;;;;;;;;;;4992364;28;8576;-86
2023/06/19 05:23:08;;;;;;;;;;;;;;;;;;4993502;28;7161;-89
2023/06/19 05:25:41;;;;;;;;;;;;;;;;;;4989772;28;8555;-86
2023/06/19 05:28:07;;;;;;;;;;;;;;;;;;4983398;28;8848;-83
2023/06/19 05:30:33;;;;;;;;;;;;;;;;;;4989405;28;8573;-84
2023/06/19 05:32:58;;;;;;;;;;;;;;;;;;4996159;28;9253;-85
2023/06/19 05:35:25;;;;;;;;;;;;;;;;;;4983355;28;8803;-85
2023/06/19 05:37:51;;;;;;;;;;;;;;;;;;4981959;28;8587;-86
2023/06/19 05:40:16;;;;;;;;;;;;;;;;;;5008629;28;8931;-85
2023/06/19 05:42:42;;;;;;;;;;;;;;;;;;5008732;28;8892;-84
2023/06/19 05:45:08;;;;;;;;;;;;;;;;;;5009358;28;7198;-84
2023/06/19 05:47:34;;;;;;;;;;;;;;;;;;5009147;28;7319;-87
2023/06/19 05:49:59;;;;;;;;;;;;;;;;;;5009148;28;8533;-87
2023/06/19 05:52:25;;;;;;;;;;;;;;;;;;5008696;28;6973;-88
2023/06/19 05:54:53;;;;;;;;;;;;;;;;;;5008899;28;8438;-88
2023/06/19 05:57:22;;;;;;;;;;;;;;;;;;5009251;28;8572;-89
2023/06/19 05:59:48;;;;;;;;;;;;;;;;;;5009253;28;8927;-87
2023/06/19 06:02:15;;;;;;;;;;;;;;;;;;5008894;28;8637;-88
2023/06/19 06:04:42;;;;;;;;;;;;;;;;;;5009519;28;7242;-87
2023/06/19 06:07:08;;;;;;;;;;;;;;;;;;5008713;28;8963;-87
2023/06/19 06:09:34;;;;;;;;;;;;;;;;;;5009206;28;8569;-88
2023/06/19 06:12:00;;;;;;;;;;;;;;;;;;5008719;28;8665;-87
2023/06/19 06:14:26;;;;;;;;;;;;;;;;;;5009401;28;8523;-86
2023/06/19 06:16:53;;;;;;;;;;;;;;;;;;5008722;28;8956;-87
2023/06/19 06:19:20;;;;;;;;;;;;;;;;;;5008938;28;8515;-86
2023/06/19 06:21:45;;;;;;;;;;;;;;;;;;5008731;28;7652;-88
2023/06/19 06:24:11;;;;;;;;;;;;;;;;;;5008640;28;7280;-88
2023/06/19 06:26:37;;;;;;;;;;;;;;;;;;5008733;28;8552;-85
2023/06/19 06:29:03;;;;;;;;;;;;;;;;;;5008312;28;8425;-87
2023/06/19 06:31:29;;;;;;;;;;;;;;;;;;5010841;28;8800;-87
2023/06/19 06:33:55;;;;;;;;;;;;;;;;;;5012548;28;6942;-87
2023/06/19 06:36:20;;;;;;;;;;;;;;;;;;5012474;28;8513;-88
2023/06/19 06:38:46;;;;;;;;;;;;;;;;;;5012463;28;7164;-87
2023/06/19 06:41:12;;;;;;;;;;;;;;;;;;5012511;28;8642;-88
2023/06/19 06:43:40;;;;;;;;;;;;;;;;;;5012382;28;8775;-89
2023/06/19 06:46:06;;;;;;;;;;;;;;;;;;5012472;28;8475;-89
2023/06/19 06:48:31;;;;;;;;;;;;;;;;;;5012741;28;8565;-88
2023/06/19 06:51:01;;;;;;;;;;;;;;;;;;4996612;28;8588;-87
2023/06/19 06:53:31;;;;;;;;;;;;;;;;;;4977955;28;9441;-89
2023/06/19 06:55:57;;;;;;;;;;;;;;;;;;4983573;28;9036;-89
2023/06/19 06:58:23;;;;;;;;;;;;;;;;;;4998218;28;8720;-87
2023/06/19 07:00:50;;;;;;;;;;;;;;;;;;4976381;28;8465;-88
2023/06/19 07:03:17;;;;;;;;;;;;;;;;;;4997363;28;8581;-89
2023/06/19 07:05:43;;;;;;;;;;;;;;;;;;4985058;28;8582;-88
2023/06/19 07:08:08;;;;;;;;;;;;;;;;;;5011802;28;8640;-88
2023/06/19 07:10:34;;;;;;;;;;;;;;;;;;5011718;28;8684;-90
2023/06/19 07:13:00;;;;;;;;;;;;;;;;;;5012111;28;7646;-89
2023/06/19 07:15:25;;;;;;;;;;;;;;;;;;5007367;28;8561;-91
2023/06/19 07:17:51;;;;;;;;;;;;;;;;;;5003127;28;7180;-88
2023/06/19 07:20:17;;;;;;;;;;;;;;;;;;5011588;28;7162;-88
2023/06/19 07:22:43;;;;;;;;;;;;;;;;;;5011611;28;8816;-88
2023/06/19 07:25:10;;;;;;;;;;;;;;;;;;5011444;28;8602;-87
2023/06/19 07:27:36;;;;;;;;;;;;;;;;;;5011448;28;9373;-89
2023/06/19 07:30:02;;;;;;;;;;;;;;;;;;5011681;28;8409;-90
2023/06/19 07:32:28;;;;;;;;;;;;;;;;;;5011412;28;8539;-87
2023/06/19 07:34:53;;;;;;;;;;;;;;;;;;5011475;28;8541;-87
2023/06/19 07:37:20;;;;;;;;;;;;;;;;;;5011857;28;8436;-86
2023/06/19 07:39:50;;;;;;;;;;;;;;;;;;5011471;28;8528;-87
2023/06/19 07:42:17;;;;;;;;;;;;;;;;;;5011073;28;7321;-86
2023/06/19 07:44:43;;;;;;;;;;;;;;;;;;5011443;28;8651;-89
2023/06/19 07:47:09;;;;;;;;;;;;;;;;;;5011220;28;8942;-88
2023/06/19 07:49:36;;;;;;;;;;;;;;;;;;5007657;28;7398;-90
2023/06/19 07:52:05;;;;;;;;;;;;;;;;;;4976354;28;8627;-87
2023/06/19 07:54:31;;;;;;;;;;;;;;;;;;4975455;28;8629;-86
2023/06/19 07:56:56;;;;;;;;;;;;;;;;;;4975221;28;8436;-85
2023/06/19 07:59:24;;;;;;;;;;;;;;;;;;4975010;28;8559;-86
2023/06/19 08:01:50;;;;;;;;;;;;;;;;;;4978454;28;7380;-86
2023/06/19 08:04:19;;;;;;;;;;;;;;;;;;4977140;28;8604;-86
2023/06/19 08:06:52;;;;;;;;;;;;;;;;;;4980779;28;8499;-85
2023/06/19 08:09:18;;;;;;;;;;;;;;;;;;4975582;28;7139;-85
2023/06/19 08:11:44;;;;;;;;;;;;;;;;;;4975141;28;8578;-87
2023/06/19 08:14:09;;;;;;;;;;;;;;;;;;4975639;28;8513;-85
2023/06/19 08:16:35;;;;;;;;;;;;;;;;;;4975544;28;8630;-84
2023/06/19 08:19:04;;;;;;;;;;;;;;;;;;4974825;28;7151;-86
2023/06/19 08:21:48;;;;;;;;;;;;;;;;;;4975399;28;8604;-78
2023/06/19 08:24:13;;;;;;;;;;;;;;;;;;4982697;28;7147;-83
2023/06/19 08:26:42;;;;;;;;;;;;;;;;;;4993608;28;7160;-86
2023/06/19 08:29:07;;;;;;;;;;;;;;;;;;4990549;28;6999;-84
2023/06/19 08:31:36;;;;;;;;;;;;;;;;;;5015648;28;8638;-78
2023/06/19 08:34:09;;;;;;;;;;;;;;;;;;5014385;28;8627;-86
2023/06/19 08:36:35;;;;;;;;;;;;;;;;;;5016249;28;7387;-85
2023/06/19 08:39:00;;;;;;;;;;;;;;;;;;5012909;28;7295;-86
2023/06/19 08:41:27;;;;;;;;;;;;;;;;;;5002084;28;7145;-79
2023/06/19 08:43:55;;;;;;;;;;;;;;;;;;4985974;28;8442;-78
2023/06/19 08:46:21;;;;;;;;;;;;;;;;;;4993407;28;8529;-85
2023/06/19 08:48:46;;;;;;;;;;;;;;;;;;4994090;28;8717;-87
2023/06/19 08:51:13;;;;;;;;;;;;;;;;;;4977880;28;8635;-83
2023/06/19 08:53:52;;;;;;;;;;;;;;;;;;4998154;28;8941;-83
2023/06/19 08:56:18;;;;;;;;;;;;;;;;;;4991182;28;8595;-83
2023/06/19 08:58:44;;;;;;;;;;;;;;;;;;4985719;28;8854;-83
2023/06/19 09:01:09;;;;;;;;;;;;;;;;;;4990379;28;8888;-83
2023/06/19 09:03:35;;;;;;;;;;;;;;;;;;4975604;28;8664;-82
2023/06/19 09:06:07;;;;;;;;;;;;;;;;;;5005328;28;8540;-82
2023/06/19 09:08:32;;;;;;;;;;;;;;;;;;4985195;28;8527;-82
2023/06/19 09:10:59;;;;;;;;;;;;;;;;;;4987211;28;7205;-83
2023/06/19 09:13:26;;;;;;;;;;;;;;;;;;5008612;28;7225;-82
2023/06/19 09:16:02;;;;;;;;;;;;;;;;;;5008531;28;8651;-83
2023/06/19 09:18:29;;;;;;;;;;;;;;;;;;5009161;28;8641;-82
2023/06/19 09:20:55;;;;;;;;;;;;;;;;;;4999872;28;8917;-83
2023/06/19 09:23:21;;;;;;;;;;;;;;;;;;4985213;28;8714;-83
2023/06/19 09:25:51;;;;;;;;;;;;;;;;;;4992207;28;8639;-84
2023/06/19 09:28:21;;;;;;;;;;;;;;;;;;4976478;28;8445;-84
2023/06/19 09:30:57;;;;;;;;;;;;;;;;;;4983077;28;7290;-83
2023/06/19 09:33:24;;;;;;;;;;;;;;;;;;5009388;28;8618;-83
2023/06/19 09:35:50;;;;;;;;;;;;;;;;;;5009386;28;8845;-84
2023/06/19 09:38:18;;;;;;;;;;;;;;;;;;5008971;28;7998;-84
2023/06/19 09:40:46;;;;;;;;;;;;;;;;;;5009145;28;9050;-83
2023/06/19 09:43:13;;;;;;;;;;;;;;;;;;5009024;28;8612;-83
2023/06/19 09:45:41;;;;;;;;;;;;;;;;;;5009006;28;8643;-83
2023/06/19 09:48:12;;;;;;;;;;;;;;;;;;5008733;28;6954;-83
2023/06/19 09:50:40;;;;;;;;;;;;;;;;;;5008714;28;8632;-83
2023/06/19 09:53:06;;;;;;;;;;;;;;;;;;5008851;28;7199;-84
2023/06/19 09:55:33;;;;;;;;;;;;;;;;;;5008687;28;8562;-85
2023/06/19 09:58:01;;;;;;;;;;;;;;;;;;5008649;28;7278;-83
2023/06/19 10:00:31;;;;;;;;;;;;;;;;;;4991348;28;8434;-84
2023/06/19 10:02:58;;;;;;;;;;;;;;;;;;4984319;28;7200;-85
2023/06/19 10:05:30;;;;;;;;;;;;;;;;;;4986636;28;9388;-85
2023/06/19 10:07:59;;;;;;;;;;;;;;;;;;4991619;28;8534;-84
2023/06/19 10:10:28;;;;;;;;;;;;;;;;;;4991320;28;8868;-84
2023/06/19 10:12:55;;;;;;;;;;;;;;;;;;5008761;28;8873;-86
2023/06/19 10:15:26;;;;;;;;;;;;;;;;;;5008565;28;8550;-83
2023/06/19 10:18:05;;;;;;;;;;;;;;;;;;5008791;28;8509;-83
2023/06/19 10:20:32;;;;;;;;;;;;;;;;;;5005078;28;9278;-83
2023/06/19 10:23:10;;;;;;;;;;;;;;;;;;4992273;28;8568;-84
2023/06/19 10:25:38;;;;;;;;;;;;;;;;;;4992097;28;8991;-90
2023/06/19 10:28:06;;;;;;;;;;;;;;;;;;4991976;28;8557;-92
2023/06/19 10:30:34;;;;;;;;;;;;;;;;;;4992535;28;9237;-90
2023/06/19 10:33:03;;;;;;;;;;;;;;;;;;4992720;28;8961;-91
2023/06/19 10:35:29;;;;;;;;;;;;;;;;;;4991674;28;8664;-90
2023/06/19 10:37:55;;;;;;;;;;;;;;;;;;4984815;28;8863;-91
2023/06/19 10:40:20;;;;;;;;;;;;;;;;;;4972801;28;8474;-87
2023/06/19 10:42:46;;;;;;;;;;;;;;;;;;4982779;28;8564;-88
2023/06/19 10:45:15;;;;;;;;;;;;;;;;;;4992408;28;8573;-88
2023/06/19 10:47:41;;;;;;;;;;;;;;;;;;4984739;28;9341;-88
2023/06/19 10:50:16;;;;;;;;;;;;;;;;;;4986037;28;8405;-89
2023/06/19 10:52:45;;;;;;;;;;;;;;;;;;4998155;28;8589;-90
2023/06/19 10:55:14;;;;;;;;;;;;;;;;;;4985005;28;8567;-94
2023/06/19 10:57:44;;;;;;;;;;;;;;;;;;4983405;28;8975;-91
2023/06/19 11:00:14;;;;;;;;;;;;;;;;;;4974450;28;8736;-90
2023/06/19 11:02:43;;;;;;;;;;;;;;;;;;5008808;28;8564;-90
2023/06/19 11:05:10;;;;;;;;;;;;;;;;;;5008744;28;9381;-93
2023/06/19 11:07:35;;;;;;;;;;;;;;;;;;5010690;28;8583;-89
2023/06/19 11:10:02;;;;;;;;;;;;;;;;;;4991812;28;9690;-88
2023/06/19 11:12:27;;;;;;;;;;;;;;;;;;5008304;28;8554;-89
2023/06/19 11:14:52;;;;;;;;;;;;;;;;;;4991974;28;8645;-90
2023/06/19 11:17:21;;;;;;;;;;;;;;;;;;4992798;28;8848;-93
2023/06/19 11:19:46;;;;;;;;;;;;;;;;;;4995148;28;8926;-90
2023/06/19 11:22:12;;;;;;;;;;;;;;;;;;4995445;28;8517;-91
2023/06/19 11:24:43;;;;;;;;;;;;;;;;;;4995202;28;8456;-89
2023/06/19 11:27:16;;;;;;;;;;;;;;;;;;5011533;28;8547;-89
2023/06/19 11:29:42;;;;;;;;;;;;;;;;;;5011685;28;7479;-90
2023/06/19 11:32:15;;;;;;;;;;;;;;;;;;4995086;28;8598;-92
2023/06/19 11:34:40;;;;;;;;;;;;;;;;;;5011551;28;8862;-90
2023/06/19 11:37:17;;;;;;;;;;;;;;;;;;4986476;28;8510;-92
2023/06/19 11:39:44;;;;;;;;;;;;;;;;;;4976081;28;8968;-91
2023/06/19 11:42:10;;;;;;;;;;;;;;;;;;4975514;28;8514;-90
2023/06/19 11:44:35;;;;;;;;;;;;;;;;;;4976421;28;8580;-91
2023/06/19 11:47:03;;;;;;;;;;;;;;;;;;4989452;28;8468;-86
2023/06/19 11:49:34;;;;;;;;;;;;;;;;;;4994692;28;8590;-87
2023/06/19 11:52:00;;;;;;;;;;;;;;;;;;4996249;28;8548;-89
2023/06/19 11:54:26;;;;;;;;;;;;;;;;;;4985912;28;8590;-88
2023/06/19 11:56:51;;;;;;;;;;;;;;;;;;4974981;28;9093;-87
2023/06/19 11:59:17;;;;;;;;;;;;;;;;;;4975022;28;8538;-87
2023/06/19 12:01:42;;;;;;;;;;;;;;;;;;4975147;28;8571;-87
2023/06/19 12:04:08;;;;;;;;;;;;;;;;;;4975048;28;9298;-87
2023/06/19 12:06:35;;;;;;;;;;;;;;;;;;4975066;28;8536;-89
2023/06/19 12:09:01;;;;;;;;;;;;;;;;;;4974999;28;8586;-91
2023/06/19 12:11:26;;;;;;;;;;;;;;;;;;4975460;28;8582;-88
2023/06/19 12:13:53;;;;;;;;;;;;;;;;;;4978640;28;7284;-87
2023/06/19 12:16:19;;;;;;;;;;;;;;;;;;4996058;28;8949;-90
2023/06/19 12:18:44;;;;;;;;;;;;;;;;;;4996232;28;9527;-87
2023/06/19 12:21:10;;;;;;;;;;;;;;;;;;4995250;28;8595;-85
2023/06/19 12:23:35;;;;;;;;;;;;;;;;;;4995689;28;8500;-86
2023/06/19 12:26:01;;;;;;;;;;;;;;;;;;4985311;28;9052;-86
2023/06/19 12:28:26;;;;;;;;;;;;;;;;;;4994157;28;7318;-87
2023/06/19 12:30:52;;;;;;;;;;;;;;;;;;4991569;28;8430;-86
2023/06/19 12:33:20;;;;;;;;;;;;;;;;;;4993286;28;8741;-88
2023/06/19 12:35:46;;;;;;;;;;;;;;;;;;4992537;28;9464;-86
2023/06/19 12:38:11;;;;;;;;;;;;;;;;;;5008916;28;8555;-85
2023/06/19 12:40:37;;;;;;;;;;;;;;;;;;5005345;28;8525;-90
2023/06/19 12:43:03;;;;;;;;;;;;;;;;;;5009277;28;7169;-82
2023/06/19 12:45:28;;;;;;;;;;;;;;;;;;5001145;28;8645;-85
2023/06/19 12:47:54;;;;;;;;;;;;;;;;;;4986624;28;8868;-83
2023/06/19 12:50:19;;;;;;;;;;;;;;;;;;5003747;28;8683;-83
2023/06/19 12:52:45;;;;;;;;;;;;;;;;;;4977299;28;8611;-83
2023/06/19 12:55:10;;;;;;;;;;;;;;;;;;5009608;28;8718;-83
2023/06/19 12:57:36;;;;;;;;;;;;;;;;;;4993728;28;7157;-83
2023/06/19 13:00:05;;;;;;;;;;;;;;;;;;5007895;28;8574;-83
2023/06/19 13:02:31;;;;;;;;;;;;;;;;;;4992482;28;9386;-84
2023/06/19 13:04:58;;;;;;;;;;;;;;;;;;4984826;28;8547;-85
2023/06/19 13:07:23;;;;;;;;;;;;;;;;;;4984704;28;8631;-85
2023/06/19 13:09:49;;;;;;;;;;;;;;;;;;4985465;28;8859;-83
2023/06/19 13:12:15;;;;;;;;;;;;;;;;;;4987472;28;8562;-85
2023/06/19 13:14:41;;;;;;;;;;;;;;;;;;5005112;28;8773;-90
2023/06/19 13:17:07;;;;;;;;;;;;;;;;;;4987243;28;8847;-90
2023/06/19 13:19:32;;;;;;;;;;;;;;;;;;4978397;28;7427;-90
2023/06/19 13:21:58;;;;;;;;;;;;;;;;;;4993180;28;9129;-90
2023/06/19 13:24:27;;;;;;;;;;;;;;;;;;5009208;28;8889;-90
2023/06/19 13:26:53;;;;;;;;;;;;;;;;;;5009732;28;8553;-89
2023/06/19 13:29:19;;;;;;;;;;;;;;;;;;5005933;28;8456;-89
2023/06/19 13:31:45;;;;;;;;;;;;;;;;;;5001822;28;8757;-88
2023/06/19 13:34:10;;;;;;;;;;;;;;;;;;5009076;28;7168;-87
2023/06/19 13:36:36;;;;;;;;;;;;;;;;;;5017748;28;8793;-85
2023/06/19 13:39:03;;;;;;;;;;;;;;;;;;4988387;28;8461;-87
2023/06/19 13:41:30;;;;;;;;;;;;;;;;;;4984228;28;8555;-86
2023/06/19 13:43:56;;;;;;;;;;;;;;;;;;4982149;28;8745;-87
2023/06/19 13:46:21;;;;;;;;;;;;;;;;;;4989596;28;8552;-87
2023/06/19 13:48:50;;;;;;;;;;;;;;;;;;4980654;28;8596;-87
2023/06/19 13:51:16;;;;;;;;;;;;;;;;;;4987327;28;8501;-87
2023/06/19 13:53:42;;;;;;;;;;;;;;;;;;4999164;28;8542;-87
2023/06/19 13:56:07;;;;;;;;;;;;;;;;;;5003152;28;8547;-87
2023/06/19 13:58:33;;;;;;;;;;;;;;;;;;5006826;28;8641;-86
2023/06/19 14:00:58;;;;;;;;;;;;;;;;;;4991755;28;7400;-87
2023/06/19 14:03:24;;;;;;;;;;;;;;;;;;4986642;28;8598;-87
2023/06/19 14:05:49;;;;;;;;;;;;;;;;;;4984100;28;8681;-86
2023/06/19 14:08:15;;;;;;;;;;;;;;;;;;4998357;28;8563;-86
2023/06/19 14:10:40;;;;;;;;;;;;;;;;;;4992824;28;8582;-86
2023/06/19 14:13:06;;;;;;;;;;;;;;;;;;4980936;28;7241;-87
2023/06/19 14:15:31;;;;;;;;;;;;;;;;;;4991984;28;8604;-86
2023/06/19 14:17:57;;;;;;;;;;;;;;;;;;5001340;28;7648;-88
2023/06/19 14:20:22;;;;;;;;;;;;;;;;;;4992768;28;7291;-86
2023/06/19 14:22:48;;;;;;;;;;;;;;;;;;5008880;28;8705;-87
2023/06/19 14:25:13;;;;;;;;;;;;;;;;;;5009574;28;8841;-86
2023/06/19 14:27:39;;;;;;;;;;;;;;;;;;5009113;28;7198;-86
2023/06/19 14:30:05;;;;;;;;;;;;;;;;;;5008795;28;8491;-90
2023/06/19 14:32:31;;;;;;;;;;;;;;;;;;5006955;28;8923;-87
2023/06/19 14:34:56;;;;;;;;;;;;;;;;;;5005930;28;8504;-87
2023/06/19 14:37:22;;;;;;;;;;;;;;;;;;5007921;28;7294;-87
2023/06/19 14:39:47;;;;;;;;;;;;;;;;;;5009091;28;8515;-88
2023/06/19 14:42:13;;;;;;;;;;;;;;;;;;4995999;28;8654;-88
2023/06/19 14:44:38;;;;;;;;;;;;;;;;;;5009376;28;8537;-88
2023/06/19 14:47:04;;;;;;;;;;;;;;;;;;5009158;28;8630;-88
2023/06/19 14:49:30;;;;;;;;;;;;;;;;;;5009839;28;8424;-88
2023/06/19 14:51:56;;;;;;;;;;;;;;;;;;5009648;28;9062;-87
2023/06/19 14:54:23;;;;;;;;;;;;;;;;;;5013115;28;9234;-91
2023/06/19 14:56:49;;;;;;;;;;;;;;;;;;5013263;28;8689;-90
2023/06/19 14:59:15;;;;;;;;;;;;;;;;;;5009737;28;8787;-89
2023/06/19 15:01:41;;;;;;;;;;;;;;;;;;4995337;28;8582;-91
2023/06/19 15:04:06;;;;;;;;;;;;;;;;;;4992582;28;8527;-90
2023/06/19 15:06:32;;;;;;;;;;;;;;;;;;5011815;28;8556;-91
2023/06/19 15:08:58;;;;;;;;;;;;;;;;;;4996587;28;9265;-90
2023/06/19 15:11:24;;;;;;;;;;;;;;;;;;4996208;28;8518;-91
2023/06/19 15:13:49;;;;;;;;;;;;;;;;;;4996543;28;8451;-91
2023/06/19 15:16:16;;;;;;;;;;;;;;;;;;5012664;28;9068;-91
2023/06/19 15:18:43;;;;;;;;;;;;;;;;;;5012600;28;8552;-91
2023/06/19 15:21:09;;;;;;;;;;;;;;;;;;4995504;28;9034;-90
2023/06/19 15:23:34;;;;;;;;;;;;;;;;;;4992174;28;8629;-87
2023/06/19 15:26:00;;;;;;;;;;;;;;;;;;5000998;28;8520;-90
2023/06/19 15:28:25;;;;;;;;;;;;;;;;;;4996534;28;8957;-91
2023/06/19 15:30:51;;;;;;;;;;;;;;;;;;4995352;28;8558;-90
2023/06/19 15:33:16;;;;;;;;;;;;;;;;;;5010980;28;8586;-90
2023/06/19 15:35:42;;;;;;;;;;;;;;;;;;5010747;28;8811;-90
2023/06/19 15:38:07;;;;;;;;;;;;;;;;;;5011086;28;8884;-89
2023/06/19 15:40:33;;;;;;;;;;;;;;;;;;5011340;28;8455;-88
2023/06/19 15:42:59;;;;;;;;;;;;;;;;;;5011048;28;7210;-90
2023/06/19 15:45:24;;;;;;;;;;;;;;;;;;5011215;28;8805;-89
2023/06/19 15:47:50;;;;;;;;;;;;;;;;;;5011163;28;7294;-90
2023/06/19 15:50:16;;;;;;;;;;;;;;;;;;4994925;28;8798;-88
2023/06/19 15:52:41;;;;;;;;;;;;;;;;;;4999753;28;8541;-90
2023/06/19 15:55:07;;;;;;;;;;;;;;;;;;4995597;28;8558;-87
2023/06/19 15:57:33;;;;;;;;;;;;;;;;;;4994613;28;7297;-87
2023/06/19 15:59:58;;;;;;;;;;;;;;;;;;4994566;28;8584;-87
2023/06/19 16:02:24;;;;;;;;;;;;;;;;;;5010908;28;8697;-87
2023/06/19 16:04:50;;;;;;;;;;;;;;;;;;5009793;28;8715;-88
2023/06/19 16:07:15;;;;;;;;;;;;;;;;;;5007718;28;7306;-88
2023/06/19 16:09:42;;;;;;;;;;;;;;;;;;5000206;28;8506;-87
2023/06/19 16:12:08;;;;;;;;;;;;;;;;;;4991157;28;9122;-86
2023/06/19 16:14:33;;;;;;;;;;;;;;;;;;4985473;28;8501;-87
2023/06/19 16:16:59;;;;;;;;;;;;;;;;;;5010692;28;9490;-90
2023/06/19 16:19:24;;;;;;;;;;;;;;;;;;4990337;28;8861;-87
2023/06/19 16:21:50;;;;;;;;;;;;;;;;;;4995917;28;8598;-87
2023/06/19 16:24:16;;;;;;;;;;;;;;;;;;4974796;28;7130;-87
2023/06/19 16:26:42;;;;;;;;;;;;;;;;;;4974788;28;8507;-88
2023/06/19 16:29:08;;;;;;;;;;;;;;;;;;4974814;28;8892;-86
2023/06/19 16:31:33;;;;;;;;;;;;;;;;;;4974673;28;8497;-87
2023/06/19 16:34:00;;;;;;;;;;;;;;;;;;4974736;28;9268;-87
2023/06/19 16:36:26;;;;;;;;;;;;;;;;;;4974458;28;8592;-88
2023/06/19 16:38:52;;;;;;;;;;;;;;;;;;4975496;28;7089;-88
2023/06/19 16:41:18;;;;;;;;;;;;;;;;;;4990480;28;8545;-89
2023/06/19 16:43:43;;;;;;;;;;;;;;;;;;4974251;28;9043;-90
2023/06/19 16:46:09;;;;;;;;;;;;;;;;;;4974264;28;8441;-88
2023/06/19 16:48:35;;;;;;;;;;;;;;;;;;4974304;28;9551;-88
2023/06/19 16:51:01;;;;;;;;;;;;;;;;;;4974101;28;7279;-88
2023/06/19 16:53:27;;;;;;;;;;;;;;;;;;4974230;28;8539;-88
2023/06/19 16:55:55;;;;;;;;;;;;;;;;;;4974123;28;8508;-89
2023/06/19 16:58:24;;;;;;;;;;;;;;;;;;4974010;28;9372;-88
2023/06/19 17:00:51;;;;;;;;;;;;;;;;;;4974074;28;7301;-88